createdAt,value
2023-05-20T00:00:05.340Z,101140.84
2023-05-20T00:02:33.733Z,101146.88
2023-05-20T00:05:01.849Z,101140.88
2023-05-20T00:07:29.651Z,101145.19
2023-05-20T00:09:57.825Z,101139.13
2023-05-20T00:12:25.577Z,101135.69
2023-05-20T00:14:55.224Z,101133.09
2023-05-20T00:17:24.013Z,101136.59
2023-05-20T00:19:51.931Z,101137.44
2023-05-20T00:22:20.114Z,101128.78
2023-05-20T00:24:51.382Z,101117.53
2023-05-20T00:27:19.413Z,101130.50
2023-05-20T00:29:47.419Z,101126.16
2023-05-20T00:32:15.498Z,101121.81
2023-05-20T00:34:44.546Z,101121.88
2023-05-20T00:37:12.481Z,101121.00
2023-05-20T00:39:40.012Z,101125.31
2023-05-20T00:42:08.175Z,101117.56
2023-05-20T00:44:35.944Z,101121.84
2023-05-20T00:47:04.352Z,101114.00
2023-05-20T00:49:32.464Z,101113.16
2023-05-20T00:52:00.839Z,101116.56
2023-05-20T00:54:28.834Z,101109.63
2023-05-20T00:56:56.256Z,101117.44
2023-05-20T00:59:23.952Z,101113.16
2023-05-20T01:01:52.150Z,101116.63
2023-05-20T01:04:20.035Z,101109.69
2023-05-20T01:06:47.983Z,101109.69
2023-05-20T01:09:15.650Z,101106.19
2023-05-20T01:11:48.486Z,101102.72
2023-05-20T01:14:16.248Z,101102.72
2023-05-20T01:16:43.667Z,101098.41
2023-05-20T01:19:22.088Z,101101.03
2023-05-20T01:21:50.193Z,101096.66
2023-05-20T01:24:18.808Z,101100.13
2023-05-20T01:26:48.501Z,101086.22
2023-05-20T01:29:18.715Z,101091.44
2023-05-20T01:31:46.563Z,101087.13
2023-05-20T01:34:14.611Z,101075.81
2023-05-20T01:36:42.533Z,101081.91
2023-05-20T01:39:10.391Z,101072.34
2023-05-20T01:41:38.365Z,101072.28
2023-05-20T01:44:06.069Z,101070.50
2023-05-20T01:46:34.667Z,101062.66
2023-05-20T01:49:02.665Z,101060.91
2023-05-20T01:51:31.256Z,101057.47
2023-05-20T01:53:59.125Z,101052.25
2023-05-20T01:56:26.755Z,101047.94
2023-05-20T01:58:54.967Z,101052.25
2023-05-20T02:01:22.782Z,101050.56
2023-05-20T02:03:50.698Z,101048.84
2023-05-20T02:06:18.795Z,101043.66
2023-05-20T02:08:47.178Z,101039.34
2023-05-20T02:11:15.250Z,101034.13
2023-05-20T02:13:43.596Z,101033.25
2023-05-20T02:16:11.598Z,101036.72
2023-05-20T02:18:39.884Z,101035.00
2023-05-20T02:21:11.047Z,101028.91
2023-05-20T02:23:39.030Z,101031.53
2023-05-20T02:26:07.110Z,101028.06
2023-05-20T02:28:34.682Z,101026.41
2023-05-20T02:31:02.200Z,101020.31
2023-05-20T02:33:30.055Z,101034.19
2023-05-20T02:35:57.806Z,101026.28
2023-05-20T02:38:25.662Z,101022.78
2023-05-20T02:40:53.640Z,101029.72
2023-05-20T02:43:21.575Z,101020.16
2023-05-20T02:45:49.353Z,101020.25
2023-05-20T02:48:17.896Z,101018.50
2023-05-20T02:50:46.655Z,101003.78
2023-05-20T02:53:14.360Z,101002.97
2023-05-20T02:55:41.571Z,101005.53
2023-05-20T02:58:09.515Z,100995.16
2023-05-20T03:00:41.080Z,100992.53
2023-05-20T03:03:10.305Z,100989.94
2023-05-20T03:05:38.717Z,100995.19
2023-05-20T03:08:10.527Z,100995.19
2023-05-20T03:10:38.966Z,101001.22
2023-05-20T03:13:08.858Z,100992.66
2023-05-20T03:15:36.924Z,100995.28
2023-05-20T03:18:05.277Z,100993.50
2023-05-20T03:20:33.448Z,100985.69
2023-05-20T03:23:02.156Z,100978.72
2023-05-20T03:25:29.944Z,100986.56
2023-05-20T03:27:58.447Z,100982.19
2023-05-20T03:30:26.541Z,100988.28
2023-05-20T03:32:55.793Z,100990.88
2023-05-20T03:35:23.997Z,100992.63
2023-05-20T03:37:53.297Z,100986.56
2023-05-20T03:43:03.751Z,100989.16
2023-05-20T03:45:34.063Z,100991.75
2023-05-20T03:48:03.665Z,100977.91
2023-05-20T03:53:20.943Z,100981.28
2023-05-20T03:55:49.555Z,100990.81
2023-05-20T03:58:17.539Z,100983.84
2023-05-20T04:00:46.392Z,100982.97
2023-05-20T04:03:13.860Z,100981.22
2023-05-20T04:05:45.853Z,100974.28
2023-05-20T04:10:49.952Z,100974.28
2023-05-20T04:13:20.666Z,100976.88
2023-05-20T04:15:49.697Z,100970.00
2023-05-20T04:18:18.053Z,100976.06
2023-05-20T04:20:46.617Z,100968.28
2023-05-20T04:23:15.068Z,100967.41
2023-05-20T04:25:44.820Z,100965.66
2023-05-20T04:28:14.110Z,100959.69
2023-05-20T04:30:42.486Z,100962.31
2023-05-20T04:33:11.349Z,100974.44
2023-05-20T04:35:41.766Z,100964.03
2023-05-20T04:38:09.381Z,100967.50
2023-05-20T04:40:37.290Z,100965.81
2023-05-20T04:43:04.956Z,100954.63
2023-05-20T04:45:34.268Z,100955.50
2023-05-20T04:48:02.543Z,100950.31
2023-05-20T04:50:30.574Z,100948.63
2023-05-20T04:52:59.056Z,100947.78
2023-05-20T04:55:27.561Z,100946.91
2023-05-20T04:58:01.509Z,100946.97
2023-05-20T05:00:29.464Z,100946.97
2023-05-20T05:02:57.083Z,100946.97
2023-05-20T05:05:24.980Z,100945.28
2023-05-20T05:07:52.888Z,100946.19
2023-05-20T05:10:21.944Z,100934.06
2023-05-20T05:12:49.669Z,100935.81
2023-05-20T05:15:18.122Z,100927.16
2023-05-20T05:17:45.933Z,100935.84
2023-05-20T05:20:13.772Z,100924.56
2023-05-20T05:22:41.664Z,100920.19
2023-05-20T05:25:12.397Z,100933.22
2023-05-20T05:27:39.282Z,100915.88
2023-05-20T05:30:10.362Z,100922.81
2023-05-20T05:32:38.825Z,100916.72
2023-05-20T05:35:08.503Z,100916.78
2023-05-20T05:37:36.638Z,100918.50
2023-05-20T05:40:05.620Z,100914.19
2023-05-20T05:42:36.869Z,100919.41
2023-05-20T05:45:06.845Z,100911.56
2023-05-20T05:47:34.844Z,100911.56
2023-05-20T05:50:02.822Z,100906.38
2023-05-20T05:52:30.351Z,100914.22
2023-05-20T05:54:58.678Z,100904.63
2023-05-20T05:57:26.703Z,100906.38
2023-05-20T05:59:57.260Z,100905.50
2023-05-20T06:02:25.359Z,100907.22
2023-05-20T06:04:53.651Z,100908.97
2023-05-20T06:07:21.565Z,100905.50
2023-05-20T06:09:49.159Z,100907.25
2023-05-20T06:12:17.218Z,100909.00
2023-05-20T06:14:44.846Z,100909.88
2023-05-20T06:17:12.341Z,100909.88
2023-05-20T06:19:40.284Z,100908.16
2023-05-20T06:22:08.240Z,100914.22
2023-05-20T06:24:35.750Z,100917.63
2023-05-20T06:27:03.736Z,100911.56
2023-05-20T06:29:32.215Z,100910.69
2023-05-20T06:32:00.480Z,100913.31
2023-05-20T06:34:28.688Z,100919.41
2023-05-20T06:37:00.301Z,100919.38
2023-05-20T06:39:28.664Z,100916.81
2023-05-20T06:41:56.622Z,100913.31
2023-05-20T06:44:24.226Z,100916.81
2023-05-20T06:46:51.911Z,100922.88
2023-05-20T06:49:19.674Z,100919.44
2023-05-20T06:51:47.693Z,100919.44
2023-05-20T06:54:15.160Z,100922.00
2023-05-20T06:56:43.029Z,100926.34
2023-05-20T06:59:10.683Z,100927.19
2023-05-20T07:01:38.618Z,100925.47
2023-05-20T07:04:26.685Z,100920.25
2023-05-20T07:06:54.257Z,100920.31
2023-05-20T07:09:22.184Z,100915.97
2023-05-20T07:11:50.434Z,100917.66
2023-05-20T07:14:17.895Z,100924.63
2023-05-20T07:16:45.429Z,100925.47
2023-05-20T07:19:13.488Z,100918.53
2023-05-20T07:21:42.025Z,100915.91
2023-05-20T07:24:09.614Z,100917.66
2023-05-20T07:26:38.012Z,100903.75
2023-05-20T07:29:05.983Z,100907.22
2023-05-20T07:31:33.924Z,100903.72
2023-05-20T07:34:01.564Z,100900.25
2023-05-20T07:36:29.955Z,100902.88
2023-05-20T07:39:03.522Z,100902.88
2023-05-20T07:41:40.574Z,100911.59
2023-05-20T07:44:19.515Z,100911.59
2023-05-20T07:50:11.448Z,100909.00
2023-05-20T07:55:10.244Z,100904.63
2023-05-20T07:57:38.257Z,100911.56
2023-05-20T08:00:08.363Z,100908.97
2023-05-20T08:02:36.708Z,100915.91
2023-05-20T08:05:06.255Z,100919.38
2023-05-20T08:07:34.119Z,100913.22
2023-05-20T08:10:07.118Z,100921.91
2023-05-20T08:12:34.600Z,100912.31
2023-05-20T08:15:02.433Z,100924.50
2023-05-20T08:17:30.486Z,100930.56
2023-05-20T08:20:00.958Z,100934.06
2023-05-20T08:22:33.496Z,100937.56
2023-05-20T08:25:00.968Z,100943.69
2023-05-20T08:27:28.880Z,100938.50
2023-05-20T08:29:57.274Z,100946.31
2023-05-20T08:32:34.081Z,100949.78
2023-05-20T08:35:02.274Z,100952.44
2023-05-20T08:37:30.144Z,100959.38
2023-05-20T08:39:58.312Z,100951.56
2023-05-20T08:42:26.965Z,100955.06
2023-05-20T08:44:55.130Z,100945.50
2023-05-20T08:47:22.776Z,100948.94
2023-05-20T08:49:50.749Z,100945.47
2023-05-20T08:52:30.598Z,100951.56
2023-05-20T08:54:58.116Z,100966.34
2023-05-20T08:57:26.050Z,100957.66
2023-05-20T08:59:54.399Z,100966.38
2023-05-20T09:02:22.688Z,100970.69
2023-05-20T09:04:51.404Z,100975.03
2023-05-20T09:07:29.159Z,100985.50
2023-05-20T09:09:57.231Z,100980.28
2023-05-20T09:12:25.109Z,100977.66
2023-05-20T09:14:53.082Z,100982.88
2023-05-20T09:17:40.090Z,100980.25
2023-05-20T09:20:12.341Z,100975.91
2023-05-20T09:22:39.703Z,100976.75
2023-05-20T09:25:11.564Z,100970.66
2023-05-20T09:27:40.816Z,100963.72
2023-05-20T09:30:12.681Z,100965.41
2023-05-20T09:32:40.341Z,100961.94
2023-05-20T09:35:10.161Z,100958.41
2023-05-20T09:37:38.194Z,100968.75
2023-05-20T09:40:10.092Z,100964.34
2023-05-20T09:42:48.074Z,100965.22
2023-05-20T09:45:17.346Z,100967.00
2023-05-20T09:47:45.057Z,100970.47
2023-05-20T09:50:13.092Z,100962.66
2023-05-20T09:52:40.631Z,100971.34
2023-05-20T09:55:10.617Z,100965.25
2023-05-20T09:57:38.746Z,100955.69
2023-05-20T10:00:06.392Z,100955.66
2023-05-20T10:02:34.428Z,100955.66
2023-05-20T10:05:04.605Z,100949.53
2023-05-20T10:08:05.024Z,100939.00
2023-05-20T10:10:55.967Z,100931.97
2023-05-20T10:13:42.553Z,100933.69
2023-05-20T10:16:33.755Z,100934.59
2023-05-20T10:19:06.197Z,100931.06
2023-05-20T10:22:14.868Z,100936.25
2023-05-20T10:25:01.556Z,100924.06
2023-05-20T10:28:01.091Z,100924.09
2023-05-20T10:30:36.406Z,100924.91
2023-05-20T10:33:05.863Z,100918.75
2023-05-20T10:35:33.955Z,100916.03
2023-05-20T10:38:12.433Z,100902.91
2023-05-20T10:40:43.248Z,100901.88
2023-05-20T10:43:15.231Z,100892.31
2023-05-20T10:45:53.541Z,100899.19
2023-05-20T10:48:51.345Z,100901.56
2023-05-20T10:51:19.426Z,100894.47
2023-05-20T10:53:46.692Z,100896.09
2023-05-20T10:56:40.616Z,100886.47
2023-05-20T10:59:25.244Z,100876.03
2023-05-20T11:01:53.338Z,100872.44
2023-05-20T11:04:20.460Z,100864.59
2023-05-20T11:06:55.887Z,100866.47
2023-05-20T11:09:23.439Z,100866.41
2023-05-20T11:11:51.454Z,100873.47
2023-05-20T11:14:20.602Z,100864.88
2023-05-20T11:16:56.116Z,100858.78
2023-05-20T11:19:23.850Z,100859.72
2023-05-20T11:21:51.602Z,100854.59
2023-05-20T11:24:28.519Z,100853.72
2023-05-20T11:26:57.629Z,100867.78
2023-05-20T11:29:26.382Z,100862.56
2023-05-20T11:31:54.356Z,100874.88
2023-05-20T11:34:24.996Z,100874.00
2023-05-20T11:37:11.868Z,100881.88
2023-05-20T11:39:39.805Z,100895.84
2023-05-20T11:42:08.007Z,100895.84
2023-05-20T11:44:35.577Z,100901.03
2023-05-20T11:47:03.410Z,100899.31
2023-05-20T11:49:31.312Z,100909.72
2023-05-20T11:51:58.946Z,100902.78
2023-05-20T11:54:26.753Z,100908.88
2023-05-20T11:56:57.904Z,100915.91
2023-05-20T11:59:25.816Z,100927.28
2023-05-20T12:02:03.250Z,100922.06
2023-05-20T12:04:31.302Z,100909.84
2023-05-20T12:06:59.340Z,100894.19
2023-05-20T12:09:26.989Z,100880.03
2023-05-20T12:11:56.897Z,100879.97
2023-05-20T12:14:24.863Z,100883.47
2023-05-20T12:16:56.384Z,100895.59
2023-05-20T12:19:24.958Z,100902.66
2023-05-20T12:21:53.753Z,100892.06
2023-05-20T12:24:21.428Z,100897.38
2023-05-20T12:26:48.500Z,100897.44
2023-05-20T12:29:16.096Z,100902.59
2023-05-20T12:31:43.967Z,100899.91
2023-05-20T12:34:11.957Z,100899.78
2023-05-20T12:36:39.937Z,100905.00
2023-05-20T12:39:07.615Z,100905.88
2023-05-20T12:41:35.580Z,100900.56
2023-05-20T12:44:03.268Z,100906.75
2023-05-20T12:46:31.370Z,100895.44
2023-05-20T12:48:58.952Z,100892.84
2023-05-20T12:51:26.981Z,100892.00
2023-05-20T12:53:58.828Z,100884.09
2023-05-20T12:56:26.495Z,100883.22
2023-05-20T12:58:54.345Z,100883.13
2023-05-20T13:01:22.301Z,100881.31
2023-05-20T13:03:53.519Z,100887.19
2023-05-20T13:06:20.720Z,100884.38
2023-05-20T13:08:48.860Z,100883.28
2023-05-20T13:11:16.534Z,100875.44
2023-05-20T13:13:44.610Z,100881.44
2023-05-20T13:16:12.648Z,100875.28
2023-05-20T13:18:40.532Z,100884.03
2023-05-20T13:21:08.830Z,100887.69
2023-05-20T13:23:37.207Z,100881.56
2023-05-20T13:26:05.413Z,100879.72
2023-05-20T13:28:33.415Z,100878.03
2023-05-20T13:31:02.781Z,100870.09
2023-05-20T13:33:30.760Z,100859.00
2023-05-20T13:35:58.725Z,100872.03
2023-05-20T13:38:26.279Z,100868.66
2023-05-20T13:40:54.205Z,100878.09
2023-05-20T13:43:21.828Z,100872.81
2023-05-20T13:45:49.860Z,100875.50
2023-05-20T13:48:17.642Z,100884.28
2023-05-20T13:50:45.736Z,100886.25
2023-05-20T13:53:13.952Z,100881.03
2023-05-20T13:55:41.602Z,100886.22
2023-05-20T13:58:12.542Z,100880.16
2023-05-20T14:00:40.823Z,100883.72
2023-05-20T14:03:10.462Z,100889.00
2023-05-20T14:05:38.865Z,100893.34
2023-05-20T14:08:06.720Z,100893.41
2023-05-20T14:10:34.794Z,100900.34
2023-05-20T14:13:02.549Z,100888.09
2023-05-20T14:15:32.920Z,100888.03
2023-05-20T14:18:00.986Z,100884.47
2023-05-20T14:20:28.882Z,100892.06
2023-05-20T14:22:57.035Z,100892.56
2023-05-20T14:25:25.313Z,100888.72
2023-05-20T14:27:53.177Z,100882.06
2023-05-20T14:30:21.033Z,100883.78
2023-05-20T14:32:48.740Z,100883.00
2023-05-20T14:35:18.707Z,100873.69
2023-05-20T14:37:46.481Z,100874.84
2023-05-20T14:40:15.394Z,100879.44
2023-05-20T14:42:43.187Z,100892.06
2023-05-20T14:45:12.515Z,100885.38
2023-05-20T14:47:40.306Z,100879.47
2023-05-20T14:50:09.688Z,100881.41
2023-05-20T14:52:37.770Z,100886.81
2023-05-20T14:55:08.676Z,100886.91
2023-05-20T14:57:36.538Z,100887.84
2023-05-20T15:00:05.328Z,100882.72
2023-05-20T15:02:33.612Z,100881.00
2023-05-20T15:05:01.548Z,100880.16
2023-05-20T15:07:37.063Z,100887.19
2023-05-20T15:10:06.638Z,100889.78
2023-05-20T15:12:34.739Z,100892.50
2023-05-20T15:15:02.344Z,100902.19
2023-05-20T15:17:30.893Z,100896.19
2023-05-20T15:20:09.947Z,100902.34
2023-05-20T15:22:38.248Z,100905.00
2023-05-20T15:25:06.835Z,100892.84
2023-05-20T15:27:34.825Z,100886.78
2023-05-20T15:30:02.979Z,100891.16
2023-05-20T15:32:30.925Z,100890.31
2023-05-20T15:35:18.476Z,100882.50
2023-05-20T15:37:45.968Z,100881.66
2023-05-20T15:40:14.413Z,100870.34
2023-05-20T15:42:42.313Z,100870.34
2023-05-20T15:45:13.047Z,100866.94
2023-05-20T15:47:40.851Z,100872.13
2023-05-20T15:50:12.728Z,100860.84
2023-05-20T15:52:40.562Z,100864.34
2023-05-20T15:55:11.014Z,100851.31
2023-05-20T15:57:38.571Z,100860.06
2023-05-20T16:00:12.448Z,100859.22
2023-05-20T16:02:41.453Z,100864.47
2023-05-20T16:05:10.656Z,100862.63
2023-05-20T16:07:37.964Z,100860.97
2023-05-20T16:10:08.430Z,100862.63
2023-05-20T16:12:36.693Z,100854.97
2023-05-20T16:15:05.660Z,100858.38
2023-05-20T16:17:34.013Z,100854.06
2023-05-20T16:20:02.024Z,100853.16
2023-05-20T16:22:29.925Z,100852.28
2023-05-20T16:24:58.165Z,100868.84
2023-05-20T16:27:25.602Z,100865.44
2023-05-20T16:29:53.877Z,100868.97
2023-05-20T16:32:22.031Z,100867.19
2023-05-20T16:34:50.496Z,100872.47
2023-05-20T16:37:18.682Z,100876.84
2023-05-20T16:39:46.431Z,100876.00
2023-05-20T16:42:14.490Z,100871.66
2023-05-20T16:44:42.174Z,100873.44
2023-05-20T16:47:10.164Z,100877.81
2023-05-20T16:49:38.024Z,100878.69
2023-05-20T16:52:08.751Z,100876.97
2023-05-20T16:54:36.458Z,100883.06
2023-05-20T16:57:08.140Z,100888.28
2023-05-20T16:59:36.170Z,100890.03
2023-05-20T17:02:03.813Z,100888.25
2023-05-20T17:04:31.508Z,100880.34
2023-05-20T17:07:01.773Z,100884.66
2023-05-20T17:09:30.048Z,100875.91
2023-05-20T17:11:58.304Z,100878.56
2023-05-20T17:14:26.077Z,100870.72
2023-05-20T17:16:53.971Z,100876.00
2023-05-20T17:19:22.058Z,100876.88
2023-05-20T17:21:49.789Z,100872.56
2023-05-20T17:24:17.364Z,100868.19
2023-05-20T17:26:44.883Z,100874.31
2023-05-20T17:29:13.290Z,100874.31
2023-05-20T17:31:40.906Z,100883.06
2023-05-20T17:34:08.504Z,100875.22
2023-05-20T17:36:36.474Z,100891.88
2023-05-20T17:39:04.648Z,100888.44
2023-05-20T17:41:32.279Z,100896.34
2023-05-20T17:44:01.554Z,100910.25
2023-05-20T17:46:29.857Z,100903.22
2023-05-20T17:48:57.509Z,100907.66
2023-05-20T17:51:25.500Z,100912.06
2023-05-20T17:53:53.533Z,100928.66
2023-05-20T17:56:23.584Z,100919.16
2023-05-20T17:58:51.544Z,100925.19
2023-05-20T18:01:19.559Z,100922.59
2023-05-20T18:03:47.785Z,100924.31
2023-05-20T18:06:15.404Z,100930.41
2023-05-20T18:08:43.346Z,100929.56
2023-05-20T18:11:11.068Z,100927.84
2023-05-20T18:13:38.974Z,100929.63
2023-05-20T18:16:08.059Z,100929.63
2023-05-20T18:18:35.904Z,100931.41
2023-05-20T18:21:06.790Z,100929.69
2023-05-20T18:23:49.280Z,100937.50
2023-05-20T18:26:17.329Z,100937.53
2023-05-20T18:28:45.023Z,100931.44
2023-05-20T18:31:13.220Z,100930.56
2023-05-20T18:33:41.042Z,100928.84
2023-05-20T18:36:08.541Z,100927.09
2023-05-20T18:38:36.549Z,100926.22
2023-05-20T18:41:05.583Z,100916.66
2023-05-20T18:43:49.036Z,100910.53
2023-05-20T18:46:16.783Z,100914.97
2023-05-20T18:48:44.943Z,100917.59
2023-05-20T18:51:12.887Z,100928.03
2023-05-20T18:53:40.859Z,100924.56
2023-05-20T18:56:09.196Z,100921.09
2023-05-20T18:58:37.304Z,100921.97
2023-05-20T19:01:05.741Z,100919.31
2023-05-20T19:03:33.744Z,100914.97
2023-05-20T19:06:01.355Z,100922.81
2023-05-20T19:08:29.626Z,100917.63
2023-05-20T19:10:57.166Z,100922.84
2023-05-20T19:13:25.096Z,100918.47
2023-05-20T19:15:52.261Z,100926.31
2023-05-20T19:18:21.519Z,100929.78
2023-05-20T19:20:49.662Z,100929.78
2023-05-20T19:23:17.718Z,100933.28
2023-05-20T19:25:45.496Z,100928.06
2023-05-20T19:28:14.210Z,100930.66
2023-05-20T19:30:41.835Z,100925.44
2023-05-20T19:33:10.302Z,100928.09
2023-05-20T19:35:38.616Z,100924.59
2023-05-20T19:38:07.238Z,100930.72
2023-05-20T19:40:35.613Z,100929.84
2023-05-20T19:43:03.215Z,100928.09
2023-05-20T19:45:31.192Z,100928.09
2023-05-20T19:47:59.020Z,100929.00
2023-05-20T19:50:27.390Z,100929.84
2023-05-20T19:52:55.684Z,100922.88
2023-05-20T19:55:23.638Z,100929.84
2023-05-20T19:57:53.942Z,100930.72
2023-05-20T20:00:31.447Z,100934.19
2023-05-20T20:03:00.186Z,100928.97
2023-05-20T20:05:28.128Z,100939.41
2023-05-20T20:07:56.270Z,100936.78
2023-05-20T20:10:24.869Z,100940.28
2023-05-20T20:12:52.874Z,100943.72
2023-05-20T20:15:20.726Z,100942.88
2023-05-20T20:17:52.546Z,100943.75
2023-05-20T20:20:20.676Z,100944.59
2023-05-20T20:22:48.622Z,100935.94
2023-05-20T20:25:17.609Z,100945.47
2023-05-20T20:27:45.885Z,100945.47
2023-05-20T20:30:15.213Z,100942.00
2023-05-20T20:32:43.297Z,100943.75
2023-05-20T20:35:11.536Z,100949.84
2023-05-20T20:37:39.491Z,100942.88
2023-05-20T20:40:13.280Z,100939.38
2023-05-20T20:42:45.314Z,100939.38
2023-05-20T20:45:13.464Z,100942.03
2023-05-20T20:47:41.747Z,100946.34
2023-05-20T20:50:11.634Z,100937.69
2023-05-20T20:52:42.968Z,100938.53
2023-05-20T20:55:12.510Z,100935.06
2023-05-20T20:57:42.002Z,100942.00
2023-05-20T21:00:20.684Z,100934.19
2023-05-20T21:02:48.351Z,100933.31
2023-05-20T21:05:16.973Z,100935.06
2023-05-20T21:07:49.307Z,100930.69
2023-05-20T21:10:20.794Z,100928.09
2023-05-20T21:12:48.453Z,100924.63
2023-05-20T21:15:16.595Z,100918.53
2023-05-20T21:17:44.640Z,100915.94
2023-05-20T21:20:14.248Z,100911.59
2023-05-20T21:22:41.917Z,100921.16
2023-05-20T21:25:10.541Z,100912.47
2023-05-20T21:27:38.027Z,100906.41
2023-05-20T21:30:08.461Z,100911.59
2023-05-20T21:32:36.011Z,100907.25
2023-05-20T21:35:06.419Z,100901.19
2023-05-20T21:37:34.021Z,100901.19
2023-05-20T21:40:02.010Z,100895.94
2023-05-20T21:42:29.964Z,100892.44
2023-05-20T21:44:57.933Z,100881.19
2023-05-20T21:47:25.513Z,100890.75
2023-05-20T21:49:53.483Z,100883.78
2023-05-20T21:52:21.070Z,100881.19
2023-05-20T21:54:48.910Z,100881.16
2023-05-20T21:57:16.764Z,100876.00
2023-05-20T21:59:44.779Z,100869.03
2023-05-20T22:02:12.672Z,100872.50
2023-05-20T22:04:40.820Z,100864.66
2023-05-20T22:07:09.177Z,100868.13
2023-05-20T22:09:35.965Z,100862.91
2023-05-20T22:12:05.025Z,100869.00
2023-05-20T22:14:33.066Z,100860.31
2023-05-20T22:17:00.979Z,100858.56
2023-05-20T22:19:28.538Z,100859.44
2023-05-20T22:21:56.166Z,100858.56
2023-05-20T22:24:24.137Z,100858.56
2023-05-20T22:26:52.099Z,100850.75
2023-05-20T22:29:20.361Z,100857.72
2023-05-20T22:31:48.262Z,100855.09
2023-05-20T22:34:16.265Z,100855.97
2023-05-20T22:36:45.344Z,100854.25
2023-05-20T22:39:13.457Z,100849.91
2023-05-20T22:41:41.021Z,100849.00
2023-05-20T22:44:08.574Z,100839.47
2023-05-20T22:46:36.651Z,100837.72
2023-05-20T22:49:04.530Z,100842.94
2023-05-20T22:51:34.473Z,100837.72
2023-05-20T22:54:01.922Z,100829.03
2023-05-20T22:56:29.750Z,100835.13
2023-05-20T22:58:57.660Z,100829.06
2023-05-20T23:01:25.787Z,100825.56
2023-05-20T23:03:53.868Z,100826.44
2023-05-20T23:06:22.845Z,100827.28
2023-05-20T23:08:50.108Z,100818.63
2023-05-20T23:11:18.084Z,100820.38
2023-05-20T23:13:46.354Z,100819.50
2023-05-20T23:16:16.751Z,100817.75
2023-05-20T23:18:44.782Z,100808.19
2023-05-20T23:21:12.324Z,100803.00
2023-05-20T23:23:40.128Z,100807.34
2023-05-20T23:26:07.894Z,100804.75
2023-05-20T23:28:35.949Z,100802.97
2023-05-20T23:31:03.689Z,100801.25
2023-05-20T23:33:31.275Z,100802.97
2023-05-20T23:35:59.299Z,100789.09
2023-05-20T23:38:27.208Z,100795.13
2023-05-20T23:40:55.445Z,100794.28
2023-05-20T23:43:24.872Z,100796.00
2023-05-20T23:45:52.945Z,100792.56
2023-05-20T23:48:20.787Z,100787.34
2023-05-20T23:50:48.990Z,100783.00
2023-05-20T23:53:17.111Z,100790.78
2023-05-20T23:55:45.358Z,100778.63
2023-05-20T23:58:12.932Z,100779.50
